Terminal Aerodrome Forecast
Issued by NWS Charleston, WV

Current Version | Previous Version | Graphics & Text | Print | Product List | Glossary On
Versions: 1 2 3 4 5 6 7 8 9 10 11 12 13 14 15 16 17 18 19 20 21 22 23 24 25 26 27
000
FTUS41 KRLX 271700
TAFCRW
TAF
KCRW 271729Z 2718/2818 31010G16KT P6SM BKN050
     FM280100 33006KT P6SM BKN040
     FM281100 34007KT P6SM BKN025
     FM281400 33008KT P6SM SCT035=

USA.gov is the U.S. government's official web portal to all federal, state and local government web resources and services.